Time;durP1;ratioP1;P1;durP2;ratioP2;P2;SDS_P1;SDS_P2;PMS_P1;PMS_P2;Temp;Humidity;BMP_temperature;BMP_pressure;BME280_temperature;BME280_humidity;BME280_pressure;Samples;Min_cycle;Max_cycle;Signal;HPM_P1;HPM_P2
2023/03/05 00:01:30;;;;;;;18.90;9.95;;;;;;;9.14;63.92;98967.75;4877925;29;20031;-94
2023/03/05 00:03:56;;;;;;;20.90;10.75;;;;;;;8.99;66.12;98980.09;4878629;29;20024;-93
2023/03/05 00:06:26;;;;;;;20.75;10.90;;;;;;;9.00;66.30;98984.38;4876435;29;20048;-94
2023/03/05 00:08:52;;;;;;;16.92;10.75;;;;;;;8.97;67.15;98982.25;4877495;29;20035;-94
2023/03/05 00:11:18;;;;;;;20.08;10.98;;;;;;;8.92;67.12;98968.00;4877021;29;20032;-95
2023/03/05 00:13:44;;;;;;;23.40;11.93;;;;;;;8.85;66.92;98952.16;4891766;29;20100;-93
2023/03/05 00:16:15;;;;;;;18.90;11.80;;;;;;;8.95;66.45;98965.59;4876866;29;20024;-93
2023/03/05 00:18:45;;;;;;;17.65;9.93;;;;;;;8.95;63.88;98960.22;4878273;29;20024;-93
2023/03/05 00:21:28;;;;;;;17.48;9.75;;;;;;;9.05;62.51;98968.28;4877455;29;20119;-93
2023/03/05 00:23:54;;;;;;;21.63;10.00;;;;;;;8.98;62.24;98962.34;4877077;29;20466;-94
2023/03/05 00:26:21;;;;;;;18.63;9.32;;;;;;;9.00;62.44;98943.31;4877042;29;20032;-94
2023/03/05 00:28:50;;;;;;;16.83;9.07;;;;;;;9.14;61.69;98948.94;4892086;29;20024;-93
2023/03/05 00:31:29;;;;;;;20.80;9.90;;;;;;;9.15;63.34;98958.59;4876877;29;20055;-95
2023/03/05 00:33:56;;;;;;;17.05;8.27;;;;;;;9.09;62.26;98955.94;4876526;29;20036;-93
2023/03/05 00:36:23;;;;;;;17.83;9.23;;;;;;;9.07;62.18;98946.53;4892401;29;20036;-93
2023/03/05 00:38:54;;;;;;;18.95;10.45;;;;;;;9.17;64.06;98948.41;4876901;29;20494;-94
2023/03/05 00:41:20;;;;;;;22.05;10.50;;;;;;;9.16;64.94;98952.97;4878107;29;20035;-94
2023/03/05 00:43:46;;;;;;;17.88;9.73;;;;;;;8.96;65.83;98943.03;4876395;29;20028;-94
2023/03/05 00:46:11;;;;;;;20.25;10.65;;;;;;;8.85;66.06;98939.53;4876210;29;20032;-93
2023/03/05 00:48:37;;;;;;;17.15;9.85;;;;;;;8.90;66.31;98941.41;4873785;29;20063;-93
2023/03/05 00:51:03;;;;;;;19.85;9.90;;;;;;;8.81;66.19;98927.72;4890082;29;20020;-93
2023/03/05 00:53:29;;;;;;;17.75;9.50;;;;;;;8.77;66.55;98940.06;4873497;29;20115;-94
2023/03/05 00:55:57;;;;;;;16.35;9.20;;;;;;;8.81;62.57;98941.13;4874121;29;20439;-95
2023/03/05 00:58:28;;;;;;;15.32;8.43;;;;;;;8.93;62.26;98940.88;4889124;29;20039;-94
2023/03/05 01:00:57;;;;;;;16.75;9.32;;;;;;;8.88;63.57;98933.66;4889520;29;20019;-95
2023/03/05 01:03:26;;;;;;;24.08;9.38;;;;;;;8.95;63.20;98932.56;4873977;29;20561;-94
2023/03/05 01:05:52;;;;;;;17.85;9.85;;;;;;;8.97;62.97;98939.28;4873291;29;20069;-94
2023/03/05 01:08:21;;;;;;;14.82;7.80;;;;;;;9.03;61.97;98938.19;4873208;29;20030;-93
2023/03/05 01:10:47;;;;;;;17.98;8.10;;;;;;;8.97;61.03;98919.69;4873593;29;20036;-94
2023/03/05 01:13:12;;;;;;;23.35;9.73;;;;;;;8.90;64.53;98920.75;4873210;29;20071;-93
2023/03/05 01:15:38;;;;;;;19.52;9.77;;;;;;;8.87;66.13;98928.53;4872686;29;20537;-94
2023/03/05 01:18:06;;;;;;;17.98;9.02;;;;;;;8.86;66.20;98924.22;4873051;29;20027;-94
2023/03/05 01:20:32;;;;;;;25.13;10.32;;;;;;;8.87;66.34;98936.59;4873676;29;20032;-94
2023/03/05 01:22:58;;;;;;;20.50;10.13;;;;;;;8.94;66.23;98942.47;4888701;29;20418;-94
2023/03/05 01:25:27;;;;;;;17.83;10.27;;;;;;;8.78;66.84;98933.63;4897375;29;20044;-94
2023/03/05 01:27:56;;;;;;;17.85;10.20;;;;;;;8.75;66.43;98928.00;4905653;29;20119;-95
2023/03/05 01:30:25;;;;;;;19.50;10.45;;;;;;;8.83;66.40;98941.69;4888897;29;20561;-95
2023/03/05 01:32:50;;;;;;;18.52;9.30;;;;;;;8.89;66.26;98945.97;4888099;29;20075;-94
2023/03/05 01:35:20;;;;;;;15.93;9.60;;;;;;;8.86;65.53;98940.31;4887877;29;20040;-94
2023/03/05 01:37:46;;;;;;;16.35;9.82;;;;;;;8.94;64.42;98944.38;4872610;29;20056;-94
2023/03/05 01:40:16;;;;;;;17.15;9.73;;;;;;;8.92;64.21;98947.31;4887784;29;20123;-94
2023/03/05 01:42:46;;;;;;;21.08;9.70;;;;;;;8.87;63.33;98932.00;4903862;29;20071;-93
2023/03/05 01:45:14;;;;;;;17.33;9.10;;;;;;;8.84;63.85;98939.78;4888275;29;20028;-94
2023/03/05 01:47:39;;;;;;;18.67;9.07;;;;;;;8.90;63.02;98944.91;4902701;29;20040;-94
2023/03/05 01:50:07;;;;;;;15.13;8.98;;;;;;;8.79;62.90;98931.75;4888342;29;20445;-94
2023/03/05 01:52:34;;;;;;;18.08;9.35;;;;;;;8.79;62.40;98937.91;4887984;29;20044;-94
2023/03/05 01:55:15;;;;;;;16.98;8.68;;;;;;;8.75;63.15;98938.72;4887926;29;20032;-94
2023/03/05 01:57:49;;;;;;;16.13;7.87;;;;;;;8.87;62.41;98947.31;4888436;29;20051;-96
2023/03/05 02:00:18;;;;;;;20.35;8.43;;;;;;;8.86;62.69;98956.44;4902971;29;20284;-93
2023/03/05 02:02:46;;;;;;;14.85;7.70;;;;;;;8.82;62.54;98941.94;4902935;29;20043;-94
2023/03/05 02:05:32;;;;;;;17.42;8.57;;;;;;;8.80;62.47;98936.03;4888409;29;20124;-94
2023/03/05 02:07:59;;;;;;;13.70;7.93;;;;;;;8.70;62.25;98926.09;4890038;29;20032;-94
2023/03/05 02:10:38;;;;;;;17.52;9.25;;;;;;;8.83;62.01;98939.00;4887719;29;20031;-94
2023/03/05 02:13:09;;;;;;;17.40;8.65;;;;;;;8.78;62.86;98944.38;4888772;29;20036;-94
2023/03/05 02:15:35;;;;;;;13.93;7.82;;;;;;;8.78;61.88;98941.69;4888037;29;20427;-94
2023/03/05 02:18:01;;;;;;;15.50;8.52;;;;;;;8.81;61.16;98943.03;4887287;29;20192;-94
2023/03/05 02:20:28;;;;;;;15.88;9.00;;;;;;;8.88;61.63;98951.59;4888023;29;20032;-94
2023/03/05 02:22:54;;;;;;;17.17;8.75;;;;;;;8.81;60.35;98943.81;4887915;29;20107;-93
2023/03/05 02:25:22;;;;;;;19.15;8.85;;;;;;;8.89;60.29;98953.22;4890323;29;20190;-95
2023/03/05 02:28:17;;;;;;;16.90;9.32;;;;;;;8.92;60.73;98959.94;4890089;29;20123;-94
2023/03/05 02:30:47;;;;;;;18.48;9.60;;;;;;;8.90;59.75;98958.34;4905906;29;20232;-94
2023/03/05 02:33:19;;;;;;;16.48;8.73;;;;;;;8.80;60.15;98952.13;4904942;29;20032;-94
2023/03/05 02:35:45;;;;;;;24.85;9.13;;;;;;;8.70;61.17;98953.75;4906232;29;20030;-94
2023/03/05 02:38:11;;;;;;;16.17;8.68;;;;;;;8.76;60.62;98961.78;4905681;29;20556;-96
2023/03/05 02:40:37;;;;;;;20.92;9.98;;;;;;;8.69;60.19;98965.56;4890259;29;20486;-95
2023/03/05 02:43:06;;;;;;;22.10;9.98;;;;;;;8.63;57.77;98958.59;4889811;29;20026;-94
2023/03/05 02:45:35;;;;;;;18.23;9.73;;;;;;;8.64;56.62;98960.19;4891025;29;20558;-94
2023/03/05 02:48:00;;;;;;;18.67;9.60;;;;;;;8.66;57.04;98949.97;4905675;29;20447;-93
2023/03/05 02:50:27;;;;;;;17.92;9.38;;;;;;;8.60;56.62;98951.03;4905882;29;20039;-94
2023/03/05 02:52:53;;;;;;;21.77;9.65;;;;;;;8.64;56.25;98952.13;4904866;29;20028;-95
2023/03/05 02:55:18;;;;;;;19.52;10.27;;;;;;;8.53;56.42;98952.38;4905842;29;20047;-93
2023/03/05 02:57:44;;;;;;;16.88;9.00;;;;;;;8.67;56.31;98956.16;4891020;29;20042;-95
2023/03/05 03:00:11;;;;;;;25.75;11.10;;;;;;;8.73;55.67;98957.78;4906624;29;20032;-94
2023/03/05 03:02:37;;;;;;;16.67;9.07;;;;;;;8.81;54.97;98959.94;4890677;29;20465;-93
2023/03/05 03:05:04;;;;;;;18.17;9.32;;;;;;;8.87;54.88;98958.06;4905453;29;20402;-94
2023/03/05 03:07:29;;;;;;;17.80;9.38;;;;;;;8.84;54.78;98966.63;4906112;29;20051;-93
2023/03/05 03:09:55;;;;;;;19.98;9.52;;;;;;;8.64;54.52;98933.34;4907032;29;20030;-93
2023/03/05 03:12:22;;;;;;;22.13;9.57;;;;;;;8.66;54.81;98947.31;4888848;29;20055;-95
2023/03/05 03:14:48;;;;;;;23.50;9.98;;;;;;;8.73;55.13;98957.78;4905222;29;20028;-94
2023/03/05 03:17:17;;;;;;;22.80;8.93;;;;;;;8.75;54.66;98952.16;4904850;29;20106;-94
2023/03/05 03:19:43;;;;;;;19.10;9.63;;;;;;;8.59;54.73;98954.81;4889677;29;20485;-94
2023/03/05 03:22:13;;;;;;;18.80;9.88;;;;;;;8.66;54.98;98951.88;4904870;29;20039;-94
2023/03/05 03:24:39;;;;;;;17.58;9.48;;;;;;;8.59;54.96;98944.09;4905147;29;20043;-93
2023/03/05 03:27:07;;;;;;;22.13;9.80;;;;;;;8.67;54.47;98958.84;4905550;29;20478;-94
2023/03/05 03:29:33;;;;;;;19.13;9.40;;;;;;;8.59;54.41;98954.81;4889728;29;20068;-94
2023/03/05 03:31:59;;;;;;;20.58;9.63;;;;;;;8.58;54.72;98949.72;4905189;29;20462;-94
2023/03/05 03:34:24;;;;;;;18.85;9.27;;;;;;;8.53;55.29;98942.47;4904669;29;20028;-94
2023/03/05 03:36:53;;;;;;;15.73;8.88;;;;;;;8.48;55.30;98942.44;4904860;29;20020;-95
2023/03/05 03:39:18;;;;;;;23.95;10.32;;;;;;;8.59;54.57;98948.63;4905617;29;20062;-95
2023/03/05 03:41:48;;;;;;;19.35;9.63;;;;;;;8.52;54.76;98950.75;4889696;29;20031;-93
2023/03/05 03:44:16;;;;;;;22.05;10.10;;;;;;;8.54;55.74;98948.63;4904252;29;20031;-94
2023/03/05 03:46:43;;;;;;;24.23;10.48;;;;;;;8.55;55.65;98955.59;4889749;29;20066;-94
2023/03/05 03:49:18;;;;;;;18.45;9.98;;;;;;;8.58;55.06;98955.88;4889934;29;20028;-94
2023/03/05 03:51:43;;;;;;;22.33;10.20;;;;;;;8.57;54.97;98940.03;4890216;29;20028;-94
2023/03/05 03:54:09;;;;;;;23.10;11.45;;;;;;;8.53;54.92;98928.22;4889207;29;20028;-93
2023/03/05 03:56:35;;;;;;;81.80;30.88;;;;;;;8.69;54.91;98962.06;4888944;29;20483;-94
2023/03/05 03:59:01;;;;;;;86.03;35.70;;;;;;;8.74;54.71;98955.91;4889218;29;20032;-93
2023/03/05 04:01:27;;;;;;;78.22;34.08;;;;;;;8.61;54.49;98947.31;4889671;29;20020;-94
2023/03/05 04:03:56;;;;;;;50.65;22.30;;;;;;;8.72;54.70;98960.75;4889878;29;20060;-94
2023/03/05 04:06:21;;;;;;;21.92;11.55;;;;;;;8.64;54.58;98965.53;4889298;29;20035;-94
2023/03/05 04:08:47;;;;;;;22.00;10.18;;;;;;;8.69;54.08;98964.75;4889037;29;20024;-94
2023/03/05 04:11:14;;;;;;;18.23;9.38;;;;;;;8.70;54.37;98971.75;4889449;29;20167;-94
2023/03/05 04:13:47;;;;;;;19.33;9.48;;;;;;;8.69;54.36;98964.75;4904502;29;20118;-93
2023/03/05 04:16:14;;;;;;;22.58;9.63;;;;;;;8.68;55.21;98968.50;4904624;29;20043;-93
2023/03/05 04:18:39;;;;;;;21.38;10.88;;;;;;;8.56;56.89;98949.97;4904534;29;20042;-95
2023/03/05 04:21:05;;;;;;;25.42;10.73;;;;;;;8.67;56.90;98956.97;4889655;29;20495;-93
2023/03/05 04:23:31;;;;;;;25.13;9.95;;;;;;;8.63;55.57;98950.53;4891235;29;20031;-93
2023/03/05 04:25:57;;;;;;;21.00;9.90;;;;;;;8.73;54.69;98962.34;4905614;29;20048;-94
2023/03/05 04:28:22;;;;;;;24.50;11.35;;;;;;;8.74;54.15;98956.72;4890447;29;20028;-93
2023/03/05 04:30:48;;;;;;;20.92;10.65;;;;;;;8.77;54.36;98966.91;4889803;29;20036;-93
2023/03/05 04:33:17;;;;;;;23.60;11.32;;;;;;;8.74;55.49;98959.41;4889892;29;20024;-93
2023/03/05 04:35:45;;;;;;;19.42;10.18;;;;;;;8.60;56.00;98936.84;4890160;29;20063;-94
2023/03/05 04:38:11;;;;;;;24.65;11.35;;;;;;;8.66;56.14;98952.66;4889474;29;20443;-94
2023/03/05 04:40:39;;;;;;;23.30;11.88;;;;;;;8.62;57.12;98953.47;4889457;29;20032;-94
2023/03/05 04:43:05;;;;;;;26.50;11.13;;;;;;;8.61;57.15;98959.91;4873390;29;20132;-93
2023/03/05 04:45:30;;;;;;;24.23;10.95;;;;;;;8.53;57.61;98941.63;4888782;29;20067;-94
2023/03/05 04:47:56;;;;;;;23.15;10.30;;;;;;;8.54;58.10;98952.09;4889006;29;20032;-94
2023/03/05 04:50:22;;;;;;;20.00;10.75;;;;;;;8.54;58.88;98959.34;4920300;29;20036;-94
2023/03/05 04:52:53;;;;;;;23.52;11.88;;;;;;;8.46;58.73;98944.56;4888915;29;20028;-93
2023/03/05 04:55:19;;;;;;;21.52;10.93;;;;;;;8.58;58.92;98965.81;4888779;29;20028;-93
2023/03/05 04:57:44;;;;;;;23.25;10.70;;;;;;;8.45;59.07;98956.38;4873039;29;20055;-94
2023/03/05 05:00:15;;;;;;;27.38;11.60;;;;;;;8.45;58.71;98954.50;4889311;29;20032;-95
2023/03/05 05:02:42;;;;;;;24.23;11.38;;;;;;;8.42;58.85;98955.03;4874143;29;20059;-93
2023/03/05 05:05:09;;;;;;;23.75;10.57;;;;;;;8.56;58.81;98965.25;4889392;29;20032;-93
2023/03/05 05:07:37;;;;;;;26.75;11.75;;;;;;;8.47;57.38;98938.16;4889251;29;20040;-93
2023/03/05 05:10:04;;;;;;;36.15;15.05;;;;;;;8.64;57.29;98962.06;4888405;29;20035;-93
2023/03/05 05:12:30;;;;;;;34.10;17.02;;;;;;;8.49;57.19;98944.06;4889057;29;20483;-93
2023/03/05 05:14:59;;;;;;;37.08;18.92;;;;;;;8.54;56.43;98949.44;4888271;29;20063;-93
2023/03/05 05:17:24;;;;;;;28.02;13.57;;;;;;;8.55;56.23;98952.91;4888820;29;20042;-94
2023/03/05 05:19:58;;;;;;;25.42;12.00;;;;;;;8.45;55.74;98941.09;4887712;29;20044;-94
2023/03/05 05:22:24;;;;;;;23.45;11.45;;;;;;;8.54;55.56;98965.53;4875157;29;20064;-93
2023/03/05 05:24:49;;;;;;;33.47;14.20;;;;;;;8.43;55.84;98959.34;4895663;29;20502;-93
2023/03/05 05:27:15;;;;;;;24.67;12.80;;;;;;;8.42;55.82;98960.38;4892042;29;20032;-94
2023/03/05 05:29:41;;;;;;;22.02;11.15;;;;;;;8.35;55.92;98957.13;4891875;29;20087;-92
2023/03/05 05:32:06;;;;;;;23.33;10.85;;;;;;;8.47;56.14;98975.72;4906714;29;20032;-93
2023/03/05 05:34:32;;;;;;;25.02;11.18;;;;;;;8.46;56.22;98974.88;4891086;29;20075;-93
2023/03/05 05:37:01;;;;;;;22.65;9.77;;;;;;;8.54;56.15;98981.63;4891182;29;20039;-93
2023/03/05 05:39:27;;;;;;;20.27;11.20;;;;;;;8.43;56.37;98970.06;4891399;29;20473;-95
2023/03/05 05:41:52;;;;;;;23.17;11.10;;;;;;;8.56;56.49;98984.84;4906460;29;20038;-93
2023/03/05 05:44:18;;;;;;;25.25;11.18;;;;;;;8.58;55.64;98985.38;4891438;29;20055;-94
2023/03/05 05:46:44;;;;;;;23.20;11.30;;;;;;;8.52;55.38;98974.91;4890802;29;20041;-93
2023/03/05 05:49:09;;;;;;;21.33;10.93;;;;;;;8.58;54.92;98984.59;4890570;29;20034;-94
2023/03/05 05:51:35;;;;;;;27.48;12.07;;;;;;;8.70;55.33;98999.38;4891507;29;20027;-93
2023/03/05 05:54:01;;;;;;;25.45;12.18;;;;;;;8.68;54.80;98990.00;4891840;29;20039;-94
2023/03/05 05:56:26;;;;;;;23.27;12.13;;;;;;;8.71;54.78;98984.06;4906066;29;20027;-94
2023/03/05 05:58:52;;;;;;;24.15;11.75;;;;;;;8.74;54.32;98980.06;4891155;29;20036;-92
2023/03/05 06:01:23;;;;;;;24.13;11.55;;;;;;;8.80;54.81;98990.53;4891552;29;20406;-94
2023/03/05 06:03:53;;;;;;;23.02;11.10;;;;;;;8.81;54.89;98983.28;4891332;29;20028;-95
2023/03/05 06:06:23;;;;;;;27.10;12.70;;;;;;;8.87;54.05;98976.84;4891601;29;20110;-95
2023/03/05 06:09:13;;;;;;;20.13;11.35;;;;;;;9.00;54.15;98987.06;4910880;29;20054;-96
2023/03/05 06:11:42;;;;;;;23.63;11.63;;;;;;;9.05;53.34;98992.44;4897454;29;20032;-96
2023/03/05 06:14:09;;;;;;;25.38;11.25;;;;;;;9.09;52.88;98982.00;4892266;29;20035;-95
2023/03/05 06:16:35;;;;;;;25.30;13.32;;;;;;;9.11;53.04;98987.91;4891905;29;20491;-95
2023/03/05 06:19:03;;;;;;;27.38;13.45;;;;;;;9.17;53.29;98988.69;4891727;29;20038;-94
2023/03/05 06:21:31;;;;;;;21.88;11.95;;;;;;;9.26;52.33;98995.94;4892208;29;20027;-94
2023/03/05 06:24:00;;;;;;;23.23;12.30;;;;;;;9.27;52.79;99002.91;4891064;29;20039;-94
2023/03/05 06:26:26;;;;;;;19.80;10.88;;;;;;;9.30;52.07;98993.53;4887834;29;20028;-93
2023/03/05 06:29:00;;;;;;;22.10;11.57;;;;;;;9.27;51.75;98989.47;4872277;29;20483;-93
2023/03/05 06:31:26;;;;;;;21.20;11.77;;;;;;;9.42;51.48;99009.38;4873579;29;20099;-94
2023/03/05 06:33:54;;;;;;;22.75;11.85;;;;;;;9.55;51.26;99006.16;4872796;29;20032;-94
2023/03/05 06:36:20;;;;;;;26.00;11.52;;;;;;;9.59;51.18;99011.78;4872678;29;20092;-94
2023/03/05 06:38:46;;;;;;;29.33;11.68;;;;;;;9.63;49.81;99010.97;4872150;29;20111;-93
2023/03/05 06:41:14;;;;;;;29.73;13.98;;;;;;;9.44;50.86;98999.97;4887200;29;20036;-93
2023/03/05 06:43:41;;;;;;;18.83;11.10;;;;;;;9.55;51.18;99014.22;4871875;29;20032;-94
2023/03/05 06:46:36;;;;;;;26.65;12.38;;;;;;;9.42;50.42;99018.25;4888875;29;20042;-93
2023/03/05 06:49:45;;;;;;;19.33;9.70;;;;;;;9.36;50.04;99019.31;4867854;29;20396;-94
2023/03/05 06:52:59;;;;;;;;;;;;;;;;;;;;;
2023/03/05 06:55:50;;;;;;;22.10;9.60;;;;;;;9.27;50.46;99015.56;4908691;29;20127;-93
2023/03/05 06:58:44;;;;;;;18.63;10.40;;;;;;;9.22;50.32;99018.25;4892256;29;20107;-94
2023/03/05 14:50:03;;;;;;;14.05;8.13;;;;;;;11.37;38.84;98580.78;3595643;23;20330;-91
2023/03/05 14:52:32;;;;;;;16.95;8.30;;;;;;;11.38;39.37;98579.69;4917118;29;20048;-93
2023/03/05 14:54:57;;;;;;;14.73;8.55;;;;;;;11.20;39.30;98567.03;4888230;29;20114;-93
2023/03/05 14:57:26;;;;;;;16.73;9.45;;;;;;;11.11;38.92;98570.38;4886463;29;20041;-92
2023/03/05 15:00:01;;;;;;;18.15;9.57;;;;;;;11.18;38.94;98574.59;4886515;29;20515;-93
2023/03/05 15:02:30;;;;;;;15.52;8.95;;;;;;;11.11;39.00;98573.06;4892287;29;20036;-92
2023/03/05 15:05:09;;;;;;;15.35;9.15;;;;;;;11.13;39.21;98576.28;4909395;29;20107;-93
2023/03/05 15:07:35;;;;;;;16.45;8.73;;;;;;;11.04;38.80;98558.34;4886489;29;20119;-93
2023/03/05 15:10:01;;;;;;;16.17;9.32;;;;;;;11.16;39.12;98582.16;4886319;29;20056;-93
2023/03/05 15:12:34;;;;;;;17.85;9.77;;;;;;;11.08;39.18;98581.75;4888245;29;20039;-94
2023/03/05 15:15:04;;;;;;;17.05;9.13;;;;;;;11.02;39.85;98587.47;4890232;29;20056;-91
2023/03/05 15:17:36;;;;;;;15.80;8.35;;;;;;;10.83;39.87;98565.91;4887217;29;20028;-91
2023/03/05 15:20:25;;;;;;;;;;;;;;;;;;;;;
2023/03/05 15:22:52;;;;;;;20.08;9.98;;;;;;;10.94;39.67;98578.16;4905242;29;20140;-93
2023/03/05 15:25:21;;;;;;;14.75;7.38;;;;;;;10.86;38.80;98573.44;4886419;29;20031;-94
2023/03/05 15:27:51;;;;;;;16.60;9.05;;;;;;;10.73;38.72;98558.78;4887046;29;20036;-93
2023/03/05 15:30:29;;;;;;;13.60;8.07;;;;;;;10.66;38.89;98561.81;4887125;29;20024;-93
2023/03/05 15:32:59;;;;;;;11.05;6.72;;;;;;;10.66;37.93;98574.47;4886609;29;20028;-92
2023/03/05 15:35:26;;;;;;;15.27;7.57;;;;;;;10.59;37.78;98576.75;4886486;29;20035;-92
2023/03/05 15:37:51;;;;;;;13.65;7.20;;;;;;;10.59;37.97;98580.22;4887186;29;20036;-94
2023/03/05 15:40:17;;;;;;;16.50;8.55;;;;;;;10.47;38.21;98580.63;4886637;29;20052;-92
2023/03/05 15:42:50;;;;;;;15.27;8.27;;;;;;;10.25;38.41;98567.69;4888701;29;20059;-93
2023/03/05 15:45:16;;;;;;;14.60;7.20;;;;;;;10.38;38.10;98581.56;4886244;29;20052;-92
2023/03/05 15:47:44;;;;;;;12.18;7.10;;;;;;;10.25;38.81;98573.06;4886477;29;20111;-92
2023/03/05 15:50:13;;;;;;;16.48;9.25;;;;;;;10.27;38.72;98580.81;4886379;29;20056;-92
2023/03/05 15:52:41;;;;;;;14.30;7.47;;;;;;;10.15;38.73;98570.47;4885926;29;20391;-93
2023/03/05 15:55:11;;;;;;;16.80;7.93;;;;;;;10.15;38.54;98575.84;4887620;29;20048;-93
2023/03/05 15:57:43;;;;;;;13.02;7.28;;;;;;;10.20;38.67;98577.69;4886368;29;20059;-93
2023/03/05 16:00:13;;;;;;;12.55;7.05;;;;;;;10.23;38.76;98586.00;4888533;29;20059;-94
2023/03/05 16:02:38;;;;;;;11.70;8.07;;;;;;;10.05;39.08;98574.06;4886081;29;20491;-93
2023/03/05 16:05:07;;;;;;;18.08;9.13;;;;;;;10.10;39.30;98581.28;4887029;29;20056;-93
2023/03/05 16:07:35;;;;;;;12.27;7.82;;;;;;;10.07;39.70;98606.06;4886565;29;20032;-92
2023/03/05 16:10:00;;;;;;;17.23;8.98;;;;;;;10.02;39.45;98600.72;4887090;29;20032;-93
2023/03/05 16:12:30;;;;;;;11.98;7.30;;;;;;;9.94;39.37;98598.63;4887005;29;20106;-93
2023/03/05 16:14:56;;;;;;;16.10;8.40;;;;;;;9.90;39.71;98590.34;4886538;29;20063;-93
2023/03/05 16:17:22;;;;;;;15.45;8.65;;;;;;;9.86;39.76;98587.44;4886349;29;20028;-93
2023/03/05 16:19:49;;;;;;;14.70;9.82;;;;;;;9.71;39.89;98588.38;4890341;29;20035;-92
2023/03/05 16:22:14;;;;;;;17.33;9.70;;;;;;;9.70;39.64;98584.06;4889589;29;20028;-92
2023/03/05 16:24:40;;;;;;;11.35;7.70;;;;;;;9.61;39.82;98601.09;4890201;29;20024;-91
2023/03/05 16:27:06;;;;;;;17.98;9.32;;;;;;;9.52;40.31;98587.44;4889805;29;20032;-92
2023/03/05 16:29:32;;;;;;;13.10;8.13;;;;;;;9.62;39.82;98600.78;4905227;29;20040;-92
2023/03/05 16:31:58;;;;;;;16.10;8.55;;;;;;;9.53;40.20;98599.00;4889554;29;20027;-92
2023/03/05 16:34:24;;;;;;;15.88;8.63;;;;;;;9.44;40.00;98591.53;4889063;29;20440;-92
2023/03/05 16:36:51;;;;;;;15.45;8.85;;;;;;;9.52;39.67;98606.25;4888714;29;20056;-92
2023/03/05 16:39:17;;;;;;;15.68;8.30;;;;;;;9.63;39.92;98615.03;4889837;29;20497;-94
2023/03/05 16:41:43;;;;;;;13.65;8.10;;;;;;;9.36;40.09;98600.19;4905774;29;20060;-94
2023/03/05 16:44:09;;;;;;;16.45;8.25;;;;;;;9.32;40.01;98607.22;4889498;29;20032;-92
2023/03/05 16:46:51;;;;;;;27.60;13.30;;;;;;;9.39;40.29;98621.13;4889384;29;20483;-95
2023/03/05 16:49:17;;;;;;;;;;;;;;;9.43;40.43;98624.84;4894244;29;20039;-93
2023/03/05 16:51:43;;;;;;;15.40;8.88;;;;;;;9.27;40.82;98616.06;4904283;29;19923;-94
2023/03/05 16:54:13;;;;;;;18.20;9.32;;;;;;;9.20;41.02;98620.19;4889595;29;20028;-94
2023/03/05 16:56:40;;;;;;;17.45;8.70;;;;;;;9.24;40.73;98640.03;4904207;29;20094;-93
2023/03/05 16:59:06;;;;;;;18.83;9.27;;;;;;;9.21;41.55;98645.94;4888598;29;20028;-93
2023/03/05 17:01:32;;;;;;;20.63;9.35;;;;;;;9.01;42.63;98636.91;4888045;29;20487;-93
2023/03/05 17:04:00;;;;;;;18.02;8.75;;;;;;;9.06;42.89;98658.38;4888983;29;20032;-93
2023/03/05 17:06:27;;;;;;;21.77;11.07;;;;;;;8.99;41.83;98649.03;4889358;29;20036;-93
2023/03/05 17:08:54;;;;;;;23.00;10.10;;;;;;;8.93;41.84;98645.56;4888336;29;20032;-93
2023/03/05 17:11:26;;;;;;;15.95;9.60;;;;;;;8.94;42.03;98667.81;4888948;29;20107;-93
2023/03/05 17:14:02;;;;;;;18.25;9.02;;;;;;;8.94;41.70;98668.63;4889994;29;20044;-93
2023/03/05 17:16:33;;;;;;;13.93;8.15;;;;;;;8.93;41.82;98674.28;4904758;29;20024;-93
2023/03/05 17:18:59;;;;;;;17.35;9.18;;;;;;;8.83;41.79;98662.50;4888675;29;20075;-93
2023/03/05 17:21:31;;;;;;;17.17;9.25;;;;;;;8.87;42.16;98673.50;4888119;29;20032;-93
2023/03/05 17:23:56;;;;;;;16.65;10.02;;;;;;;8.76;41.82;98672.72;4890120;29;20040;-94
2023/03/05 17:26:22;;;;;;;20.75;10.73;;;;;;;8.67;42.12;98666.31;4889535;29;20495;-93
2023/03/05 17:28:50;;;;;;;19.55;8.50;;;;;;;8.45;42.26;98661.28;4889341;29;20059;-93
2023/03/05 17:31:19;;;;;;;15.02;8.23;;;;;;;8.52;41.97;98672.53;4889381;29;20019;-92
2023/03/05 17:33:44;;;;;;;14.75;8.43;;;;;;;8.40;42.14;98659.34;4889077;29;20487;-93
2023/03/05 17:36:19;;;;;;;12.02;7.43;;;;;;;8.42;42.06;98675.22;4888555;29;20032;-92
2023/03/05 17:38:46;;;;;;;14.95;8.48;;;;;;;8.50;42.33;98688.09;4891674;29;20035;-93
2023/03/05 17:41:12;;;;;;;15.50;8.23;;;;;;;8.35;42.34;98683.53;4904439;29;20039;-93
2023/03/05 17:43:38;;;;;;;15.73;8.48;;;;;;;8.27;42.81;98682.19;4887410;29;20384;-94
2023/03/05 17:46:10;;;;;;;15.68;8.15;;;;;;;8.32;43.18;98691.31;4888490;29;20115;-94
2023/03/05 17:48:38;;;;;;;13.38;7.85;;;;;;;8.12;43.14;98671.50;4889178;29;20032;-93
2023/03/05 17:51:11;;;;;;;17.52;9.07;;;;;;;8.21;43.66;98694.00;4885353;29;20052;-94
2023/03/05 17:53:40;;;;;;;11.15;7.00;;;;;;;8.10;42.86;98679.00;4900949;29;20032;-93
2023/03/05 17:56:07;;;;;;;11.93;7.28;;;;;;;8.15;43.02;98703.09;4869392;29;20384;-93
2023/03/05 17:58:33;;;;;;;14.55;8.18;;;;;;;8.04;43.01;98701.53;4900060;29;20025;-93
2023/03/05 18:00:59;;;;;;;12.65;7.93;;;;;;;7.89;43.19;98691.59;4884455;29;20025;-93
2023/03/05 18:03:29;;;;;;;12.60;7.85;;;;;;;7.98;42.92;98700.69;4869827;29;20025;-92
2023/03/05 18:06:10;;;;;;;15.45;7.60;;;;;;;8.03;43.23;98707.94;4899738;29;20048;-94
2023/03/05 18:08:36;;;;;;;11.73;6.97;;;;;;;7.99;43.29;98706.88;4883904;29;20039;-93
2023/03/05 18:11:07;;;;;;;13.45;8.23;;;;;;;7.85;43.37;98702.03;4884571;29;20496;-93
2023/03/05 18:13:32;;;;;;;16.30;7.80;;;;;;;7.82;43.14;98715.16;4884541;29;20036;-93
2023/03/05 18:15:59;;;;;;;13.52;7.65;;;;;;;7.75;43.93;98715.44;4868818;29;20419;-94
2023/03/05 18:18:24;;;;;;;15.25;8.13;;;;;;;7.71;43.88;98724.28;4883947;29;20502;-93
2023/03/05 18:20:50;;;;;;;14.68;7.22;;;;;;;7.69;44.03;98735.25;4868421;29;20056;-94
2023/03/05 18:23:19;;;;;;;12.63;5.88;;;;;;;7.61;43.41;98727.72;4884083;29;20140;-93
2023/03/05 18:25:48;;;;;;;15.57;7.25;;;;;;;7.48;44.21;98718.31;4899318;29;20021;-93
2023/03/05 18:28:14;;;;;;;13.18;6.72;;;;;;;7.58;43.96;98731.75;4868411;29;20040;-93
2023/03/05 18:30:40;;;;;;;15.90;7.03;;;;;;;7.57;43.88;98740.03;4868177;29;20028;-93
2023/03/05 18:33:08;;;;;;;11.02;6.82;;;;;;;7.53;43.86;98726.38;4868384;29;20411;-92
2023/03/05 18:35:35;;;;;;;13.50;7.25;;;;;;;7.53;44.13;98736.28;4883586;29;20024;-93
2023/03/05 18:38:01;;;;;;;13.80;8.07;;;;;;;7.47;44.54;98738.97;4867897;29;20028;-93
2023/03/05 18:40:34;;;;;;;11.95;7.28;;;;;;;7.36;44.11;98717.75;4883286;29;20562;-95
2023/03/05 18:43:00;;;;;;;11.15;6.32;;;;;;;7.28;44.16;98721.75;4882012;29;20060;-93
2023/03/05 18:45:26;;;;;;;17.63;8.95;;;;;;;7.33;44.33;98734.38;4883474;29;20021;-92
2023/03/05 18:47:53;;;;;;;14.02;7.22;;;;;;;7.27;44.66;98749.59;4883319;29;20029;-93
2023/03/05 18:50:18;;;;;;;15.75;8.15;;;;;;;7.26;44.79;98742.63;4883307;29;20056;-92
2023/03/05 18:52:46;;;;;;;14.93;8.07;;;;;;;7.34;44.85;98760.06;4852948;29;20455;-93
2023/03/05 18:55:30;;;;;;;11.38;6.95;;;;;;;7.31;44.95;98748.00;4868436;29;20036;-92
2023/03/05 18:57:57;;;;;;;12.80;7.18;;;;;;;7.29;45.30;98763.53;4853345;29;20044;-93
2023/03/05 19:00:27;;;;;;;12.10;6.80;;;;;;;7.41;44.72;98785.53;4868960;29;20035;-93
2023/03/05 19:02:53;;;;;;;11.82;6.07;;;;;;;7.28;45.27;98789.50;4852654;29;20029;-92
2023/03/05 19:05:19;;;;;;;11.32;6.47;;;;;;;7.11;45.33;98777.38;4867398;29;20031;-93
2023/03/05 19:07:44;;;;;;;15.85;8.18;;;;;;;7.20;45.25;98781.16;4867555;29;20029;-93
2023/03/05 19:10:12;;;;;;;14.35;6.82;;;;;;;7.11;45.84;98788.88;4852492;29;20024;-93
2023/03/05 19:15:50;;;;;;;13.45;6.28;;;;;;;7.20;46.08;98797.22;4885776;29;20095;-93
2023/03/05 19:19:04;;;;;;;13.65;6.65;;;;;;;7.17;46.02;98782.47;4867555;29;20134;-93
2023/03/05 19:21:35;;;;;;;12.00;6.43;;;;;;;7.08;46.24;98800.13;4859046;29;20041;-93
2023/03/05 19:24:22;;;;;;;11.35;5.90;;;;;;;7.10;46.23;98792.63;4854598;29;20036;-93
2023/03/05 19:26:47;;;;;;;12.68;6.13;;;;;;;7.05;46.37;98788.03;4870129;29;20088;-93
2023/03/05 19:29:13;;;;;;;12.77;6.57;;;;;;;7.09;46.41;98807.88;4867873;29;20032;-92
2023/03/05 19:31:39;;;;;;;16.65;6.72;;;;;;;7.07;46.34;98814.56;4852324;29;20032;-93